Time;durP1;ratioP1;P1;durP2;ratioP2;P2;SDS_P1;SDS_P2;PMS_P1;PMS_P2;Temp;Humidity;BMP_temperature;BMP_pressure;BME280_temperature;BME280_humidity;BME280_pressure;Samples;Min_cycle;Max_cycle;Signal;HPM_P1;HPM_P2
2023/07/20 00:00:43;;;;;;;4.50;1.88;;;;;;;;;;5023950;28;20204;-67
2023/07/20 00:03:16;;;;;;;2.47;1.80;;;;;;;;;;5015791;28;20205;-67
2023/07/20 00:05:43;;;;;;;2.90;1.85;;;;;;;;;;5017363;28;20266;-67
2023/07/20 00:08:10;;;;;;;2.58;1.80;;;;;;;;;;5022069;28;20233;-67
2023/07/20 00:10:39;;;;;;;4.63;2.40;;;;;;;;;;5012237;28;20271;-67
2023/07/20 00:13:06;;;;;;;6.82;2.00;;;;;;;;;;5011723;28;20207;-68
2023/07/20 00:15:33;;;;;;;1.95;1.73;;;;;;;;;;5017637;28;20231;-67
2023/07/20 00:18:00;;;;;;;1.80;1.70;;;;;;;;;;5015399;28;20205;-67
2023/07/20 00:20:27;;;;;;;2.90;1.88;;;;;;;;;;5015101;28;20207;-67
2023/07/20 00:22:57;;;;;;;2.75;2.35;;;;;;;;;;5016783;28;20213;-67
2023/07/20 00:25:24;;;;;;;3.75;2.10;;;;;;;;;;5018976;28;20220;-66
2023/07/20 00:27:53;;;;;;;3.03;1.77;;;;;;;;;;5016178;28;20209;-67
2023/07/20 00:30:20;;;;;;;4.32;1.80;;;;;;;;;;5014814;28;20217;-67
2023/07/20 00:32:47;;;;;;;3.63;2.00;;;;;;;;;;5014452;28;20200;-67
2023/07/20 00:35:14;;;;;;;2.75;1.80;;;;;;;;;;5016517;28;20209;-66
2023/07/20 00:37:42;;;;;;;2.55;1.77;;;;;;;;;;5018407;28;20213;-67
2023/07/20 00:40:09;;;;;;;2.92;1.63;;;;;;;;;;5017618;28;20251;-68
2023/07/20 00:42:37;;;;;;;3.25;1.88;;;;;;;;;;5019572;28;20197;-67
2023/07/20 00:45:06;;;;;;;3.20;2.00;;;;;;;;;;5023192;28;20211;-67
2023/07/20 00:47:34;;;;;;;5.70;1.92;;;;;;;;;;5024699;28;20207;-67
2023/07/20 00:50:01;;;;;;;2.65;1.92;;;;;;;;;;5025062;28;20205;-67
2023/07/20 00:52:29;;;;;;;3.22;1.83;;;;;;;;;;5021219;28;20208;-67
2023/07/20 00:54:56;;;;;;;3.22;2.00;;;;;;;;;;5020792;28;20192;-67
2023/07/20 00:57:25;;;;;;;2.67;2.00;;;;;;;;;;5023770;28;20204;-67
2023/07/20 00:59:52;;;;;;;4.25;1.85;;;;;;;;;;5024706;28;20220;-67
2023/07/20 01:02:21;;;;;;;3.65;2.15;;;;;;;;;;5021358;28;20213;-67
2023/07/20 01:04:48;;;;;;;2.40;2.20;;;;;;;;;;5025550;28;20208;-67
2023/07/20 01:07:18;;;;;;;4.18;2.20;;;;;;;;;;5022980;28;20228;-68
2023/07/20 01:09:48;;;;;;;4.25;2.25;;;;;;;;;;5022510;28;20208;-67
2023/07/20 01:12:20;;;;;;;3.50;2.10;;;;;;;;;;5024858;28;20216;-67
2023/07/20 01:14:47;;;;;;;4.05;2.25;;;;;;;;;;5025001;28;20254;-67
2023/07/20 01:17:15;;;;;;;1.98;1.77;;;;;;;;;;5020463;28;20200;-66
2023/07/20 01:19:43;;;;;;;4.43;2.10;;;;;;;;;;5022123;28;20213;-66
2023/07/20 01:22:14;;;;;;;4.20;2.10;;;;;;;;;;5017054;28;20262;-67
2023/07/20 01:25:00;;;;;;;3.63;2.20;;;;;;;;;;5017015;28;20314;-66
2023/07/20 01:27:42;;;;;;;3.13;2.10;;;;;;;;;;5016851;28;20228;-65
2023/07/20 01:30:15;;;;;;;2.95;2.20;;;;;;;;;;5015092;28;20219;-65
2023/07/20 01:32:44;;;;;;;3.60;2.20;;;;;;;;;;5024390;28;20203;-66
2023/07/20 01:35:14;;;;;;;2.97;2.33;;;;;;;;;;5021529;28;20303;-65
2023/07/20 01:37:42;;;;;;;3.70;2.15;;;;;;;;;;5020531;28;20210;-65
2023/07/20 01:40:10;;;;;;;4.75;2.30;;;;;;;;;;5018400;28;20219;-66
2023/07/20 01:42:37;;;;;;;2.40;2.20;;;;;;;;;;5023248;28;20205;-67
2023/07/20 01:45:05;;;;;;;4.40;1.92;;;;;;;;;;5020149;28;20219;-66
2023/07/20 01:47:32;;;;;;;3.78;2.15;;;;;;;;;;5022997;28;20239;-67
2023/07/20 01:50:01;;;;;;;3.38;2.10;;;;;;;;;;5026795;28;20207;-66
2023/07/20 01:52:28;;;;;;;2.45;2.00;;;;;;;;;;5022299;28;20204;-67
2023/07/20 01:54:55;;;;;;;3.70;1.95;;;;;;;;;;5031424;28;20207;-67
2023/07/20 01:57:22;;;;;;;2.65;2.08;;;;;;;;;;5013842;28;20209;-66
2023/07/20 01:59:49;;;;;;;2.83;1.90;;;;;;;;;;5015602;28;20215;-66
2023/07/20 02:02:16;;;;;;;4.15;2.10;;;;;;;;;;5017218;28;20205;-67
2023/07/20 02:04:44;;;;;;;3.92;2.22;;;;;;;;;;5011276;28;20215;-66
2023/07/20 02:07:12;;;;;;;3.53;2.17;;;;;;;;;;5017489;28;20221;-66
2023/07/20 02:09:39;;;;;;;3.92;2.10;;;;;;;;;;5015916;28;20209;-66
2023/07/20 02:12:07;;;;;;;3.33;2.13;;;;;;;;;;5017331;28;20212;-66
2023/07/20 02:14:34;;;;;;;3.38;2.30;;;;;;;;;;5012240;28;20240;-66
2023/07/20 02:17:01;;;;;;;2.75;2.30;;;;;;;;;;5014530;28;20253;-66
2023/07/20 02:19:29;;;;;;;6.43;2.40;;;;;;;;;;5009344;28;20205;-67
2023/07/20 02:21:56;;;;;;;3.63;2.08;;;;;;;;;;5015785;28;20216;-66
2023/07/20 02:24:25;;;;;;;4.18;2.25;;;;;;;;;;5014138;28;20203;-66
2023/07/20 02:26:52;;;;;;;4.10;2.00;;;;;;;;;;5013342;28;20232;-66
2023/07/20 02:29:20;;;;;;;2.80;2.10;;;;;;;;;;5012752;28;20211;-67
2023/07/20 02:31:47;;;;;;;3.05;2.08;;;;;;;;;;5013753;28;20208;-66
2023/07/20 02:34:14;;;;;;;4.28;2.03;;;;;;;;;;5011916;28;20211;-65
2023/07/20 02:36:42;;;;;;;2.80;2.30;;;;;;;;;;5011922;28;20208;-67
2023/07/20 02:39:10;;;;;;;5.07;2.42;;;;;;;;;;5011231;28;20254;-65
2023/07/20 02:41:38;;;;;;;2.88;2.20;;;;;;;;;;5017374;28;20300;-66
2023/07/20 02:44:05;;;;;;;4.50;2.30;;;;;;;;;;5020415;28;20214;-66
2023/07/20 02:46:34;;;;;;;2.20;2.00;;;;;;;;;;5024539;28;20220;-66
2023/07/20 02:49:01;;;;;;;4.47;2.00;;;;;;;;;;5016217;28;20251;-67
2023/07/20 02:51:28;;;;;;;2.83;1.90;;;;;;;;;;5023815;28;20211;-66
2023/07/20 02:53:55;;;;;;;2.28;1.90;;;;;;;;;;5018590;28;20201;-66
2023/07/20 02:56:23;;;;;;;2.92;2.17;;;;;;;;;;5016405;28;20205;-66
2023/07/20 02:58:52;;;;;;;2.72;1.98;;;;;;;;;;5018120;28;20228;-66
2023/07/20 03:01:19;;;;;;;3.60;2.20;;;;;;;;;;5023724;28;20251;-66
2023/07/20 03:03:46;;;;;;;3.58;2.00;;;;;;;;;;5019944;28;20205;-65
2023/07/20 03:06:14;;;;;;;3.53;2.22;;;;;;;;;;5019443;28;20225;-66
2023/07/20 03:08:47;;;;;;;3.78;2.10;;;;;;;;;;5019831;28;20216;-66
2023/07/20 03:11:14;;;;;;;3.38;1.83;;;;;;;;;;5025221;28;20224;-66
2023/07/20 03:13:42;;;;;;;2.42;1.98;;;;;;;;;;5021765;28;20230;-66
2023/07/20 03:16:11;;;;;;;2.50;2.08;;;;;;;;;;5016176;28;20236;-65
2023/07/20 03:18:38;;;;;;;2.10;1.85;;;;;;;;;;5012152;28;20212;-66
2023/07/20 03:21:07;;;;;;;3.95;2.20;;;;;;;;;;5015128;28;20276;-65
2023/07/20 03:23:34;;;;;;;3.88;2.38;;;;;;;;;;5017590;28;20213;-65
2023/07/20 03:26:02;;;;;;;5.97;2.38;;;;;;;;;;5010956;28;20205;-65
2023/07/20 03:28:29;;;;;;;3.47;2.50;;;;;;;;;;5013201;28;20205;-66
2023/07/20 03:30:56;;;;;;;3.63;2.30;;;;;;;;;;5018020;28;20211;-66
2023/07/20 03:33:27;;;;;;;2.42;2.20;;;;;;;;;;5016535;28;20208;-66
2023/07/20 03:35:54;;;;;;;2.67;2.03;;;;;;;;;;5011201;28;20209;-66
2023/07/20 03:38:22;;;;;;;4.15;2.22;;;;;;;;;;5013514;28;20291;-66
2023/07/20 03:40:52;;;;;;;2.47;2.10;;;;;;;;;;5011165;28;20224;-66
2023/07/20 03:43:19;;;;;;;2.20;2.00;;;;;;;;;;5010782;28;20199;-66
2023/07/20 03:45:47;;;;;;;3.08;2.28;;;;;;;;;;5012243;28;20259;-66
2023/07/20 03:48:15;;;;;;;3.92;2.22;;;;;;;;;;5010909;28;20259;-66
2023/07/20 03:50:43;;;;;;;3.28;1.88;;;;;;;;;;5010494;28;20215;-66
2023/07/20 03:53:10;;;;;;;4.22;2.20;;;;;;;;;;5011788;28;20196;-65
2023/07/20 03:55:38;;;;;;;2.42;2.10;;;;;;;;;;5011014;28;20212;-65
2023/07/20 03:58:05;;;;;;;3.40;2.10;;;;;;;;;;5011881;28;20293;-65
2023/07/20 04:00:32;;;;;;;2.55;2.15;;;;;;;;;;5020102;28;20211;-65
2023/07/20 04:02:59;;;;;;;5.18;2.47;;;;;;;;;;5009937;28;20196;-65
2023/07/20 04:05:27;;;;;;;3.83;2.20;;;;;;;;;;5014458;28;20206;-65
2023/07/20 04:07:55;;;;;;;2.50;2.00;;;;;;;;;;5011587;28;20217;-66
2023/07/20 04:10:22;;;;;;;2.92;2.13;;;;;;;;;;5013182;28;20199;-65
2023/07/20 04:12:49;;;;;;;2.03;1.80;;;;;;;;;;5012471;28;20209;-67
2023/07/20 04:15:17;;;;;;;2.30;2.00;;;;;;;;;;5011056;28;20251;-66
2023/07/20 04:17:44;;;;;;;3.85;2.20;;;;;;;;;;5019210;28;20196;-65
2023/07/20 04:20:11;;;;;;;4.82;2.58;;;;;;;;;;5011403;28;20200;-65
2023/07/20 04:22:38;;;;;;;3.15;2.40;;;;;;;;;;5014372;28;20203;-66
2023/07/20 04:25:07;;;;;;;2.85;2.15;;;;;;;;;;5010175;28;20210;-65
2023/07/20 04:27:34;;;;;;;4.72;2.25;;;;;;;;;;5015779;28;20250;-65
2023/07/20 04:30:02;;;;;;;3.15;2.13;;;;;;;;;;5017865;28;20208;-66
2023/07/20 04:32:30;;;;;;;6.25;2.35;;;;;;;;;;5014903;28;20205;-65
2023/07/20 04:34:57;;;;;;;2.40;2.00;;;;;;;;;;5017941;28;20238;-65
2023/07/20 04:37:24;;;;;;;2.97;2.35;;;;;;;;;;5013581;28;20196;-65
2023/07/20 04:39:51;;;;;;;4.78;2.30;;;;;;;;;;5017846;28;20201;-65
2023/07/20 04:42:20;;;;;;;2.35;2.15;;;;;;;;;;5010954;28;20224;-65
2023/07/20 04:44:47;;;;;;;4.65;2.20;;;;;;;;;;5016311;28;20204;-65
2023/07/20 04:47:14;;;;;;;3.35;2.20;;;;;;;;;;5013959;28;20225;-65
2023/07/20 04:49:41;;;;;;;3.33;2.10;;;;;;;;;;5021369;28;20204;-65
2023/07/20 04:52:09;;;;;;;3.83;2.20;;;;;;;;;;5019658;28;20227;-65
2023/07/20 04:54:36;;;;;;;3.58;2.00;;;;;;;;;;5019648;28;20200;-66
2023/07/20 04:57:03;;;;;;;3.72;2.45;;;;;;;;;;5013394;28;20208;-65
2023/07/20 04:59:32;;;;;;;4.60;2.30;;;;;;;;;;5020846;28;20192;-65
2023/07/20 05:01:59;;;;;;;4.10;2.55;;;;;;;;;;5016883;28;20201;-66
2023/07/20 05:04:26;;;;;;;3.53;2.72;;;;;;;;;;5022576;28;20207;-65
2023/07/20 05:06:53;;;;;;;5.28;3.03;;;;;;;;;;5024842;28;20237;-65
2023/07/20 05:09:20;;;;;;;7.32;2.88;;;;;;;;;;5021010;28;20215;-66
2023/07/20 05:11:47;;;;;;;3.35;3.05;;;;;;;;;;5020356;28;20208;-65
2023/07/20 05:14:15;;;;;;;3.33;2.72;;;;;;;;;;5027651;28;20226;-65
2023/07/20 05:16:43;;;;;;;4.53;2.72;;;;;;;;;;5030868;28;20235;-65
2023/07/20 05:19:10;;;;;;;5.00;2.72;;;;;;;;;;5023904;28;20208;-65
2023/07/20 05:21:37;;;;;;;6.43;2.72;;;;;;;;;;5016999;28;20204;-65
2023/07/20 05:24:05;;;;;;;3.13;2.30;;;;;;;;;;5017374;28;20214;-66
2023/07/20 05:26:33;;;;;;;3.50;2.40;;;;;;;;;;5013229;28;20235;-66
2023/07/20 05:29:00;;;;;;;4.50;2.58;;;;;;;;;;5016614;28;20268;-66
2023/07/20 05:31:30;;;;;;;3.33;2.30;;;;;;;;;;5019457;28;20212;-66
2023/07/20 05:33:59;;;;;;;6.13;2.30;;;;;;;;;;5016562;28;20226;-66
2023/07/20 05:36:30;;;;;;;3.63;2.00;;;;;;;;;;5014611;28;20217;-66
2023/07/20 05:38:58;;;;;;;3.58;2.45;;;;;;;;;;5014479;28;20212;-66
2023/07/20 05:41:25;;;;;;;2.85;2.30;;;;;;;;;;5025530;28;20207;-67
2023/07/20 05:43:52;;;;;;;4.40;1.95;;;;;;;;;;5028477;28;20196;-67
2023/07/20 05:46:19;;;;;;;4.35;2.47;;;;;;;;;;5024324;28;20268;-67
2023/07/20 05:48:46;;;;;;;3.60;2.47;;;;;;;;;;5016417;28;20243;-66
2023/07/20 05:51:15;;;;;;;4.63;2.33;;;;;;;;;;5005528;28;20205;-66
2023/07/20 05:53:42;;;;;;;3.95;2.60;;;;;;;;;;5004797;28;20208;-66
2023/07/20 05:56:10;;;;;;;3.70;2.20;;;;;;;;;;5005343;28;20205;-66
2023/07/20 05:58:37;;;;;;;3.08;2.60;;;;;;;;;;5015109;28;20197;-66
2023/07/20 06:01:06;;;;;;;9.45;2.90;;;;;;;;;;5024387;28;20224;-65
2023/07/20 06:03:34;;;;;;;4.88;2.70;;;;;;;;;;5023090;28;20268;-65
2023/07/20 06:06:01;;;;;;;3.10;2.47;;;;;;;;;;5028713;28;20204;-66
2023/07/20 06:08:30;;;;;;;5.40;2.50;;;;;;;;;;5028051;28;20231;-65
2023/07/20 06:10:57;;;;;;;4.65;2.60;;;;;;;;;;5026324;28;20205;-65
2023/07/20 06:13:25;;;;;;;5.45;2.70;;;;;;;;;;5021894;28;20232;-67
2023/07/20 06:15:53;;;;;;;3.42;2.70;;;;;;;;;;5022402;28;20260;-67
2023/07/20 06:18:21;;;;;;;3.80;3.00;;;;;;;;;;5008698;28;20224;-67
2023/07/20 06:20:51;;;;;;;3.25;2.92;;;;;;;;;;5015750;28;20208;-65
2023/07/20 06:23:18;;;;;;;4.88;3.20;;;;;;;;;;5020682;28;20207;-67
2023/07/20 06:25:47;;;;;;;4.05;3.35;;;;;;;;;;5020570;28;20213;-66
2023/07/20 06:28:14;;;;;;;5.07;2.70;;;;;;;;;;5021743;28;20339;-67
2023/07/20 06:30:41;;;;;;;4.95;3.60;;;;;;;;;;5010727;28;20215;-65
2023/07/20 06:33:08;;;;;;;4.68;3.50;;;;;;;;;;5017552;28;20218;-67
2023/07/20 06:35:36;;;;;;;6.13;2.70;;;;;;;;;;5027999;28;20200;-67
2023/07/20 06:38:03;;;;;;;3.60;2.38;;;;;;;;;;5017713;28;20276;-67
2023/07/20 06:40:30;;;;;;;3.03;2.70;;;;;;;;;;5020413;28;20219;-67
2023/07/20 06:42:59;;;;;;;2.40;2.20;;;;;;;;;;5023391;28;20208;-67
2023/07/20 06:45:26;;;;;;;3.60;2.50;;;;;;;;;;5023830;28;20302;-67
2023/07/20 06:47:53;;;;;;;4.57;2.42;;;;;;;;;;5014904;28;20215;-68
2023/07/20 06:50:21;;;;;;;2.65;2.35;;;;;;;;;;5016545;28;20228;-68
2023/07/20 06:52:48;;;;;;;2.35;2.10;;;;;;;;;;5020724;28;20211;-68
2023/07/20 06:55:15;;;;;;;3.72;2.50;;;;;;;;;;5015730;28;20219;-68
2023/07/20 06:57:43;;;;;;;4.13;2.70;;;;;;;;;;5019505;28;20201;-68
2023/07/20 07:00:13;;;;;;;2.83;2.60;;;;;;;;;;5023286;28;20204;-68
2023/07/20 07:02:40;;;;;;;2.85;2.50;;;;;;;;;;5016768;28;20192;-68
2023/07/20 07:05:08;;;;;;;3.55;2.78;;;;;;;;;;5029083;28;20208;-68
2023/07/20 07:07:35;;;;;;;4.63;2.80;;;;;;;;;;5026860;28;20287;-68
2023/07/20 07:10:04;;;;;;;4.97;2.58;;;;;;;;;;5022926;28;20215;-68
2023/07/20 07:12:31;;;;;;;3.85;2.40;;;;;;;;;;5025281;28;20204;-68
2023/07/20 07:14:59;;;;;;;2.72;2.40;;;;;;;;;;5027662;28;20203;-68
2023/07/20 07:17:28;;;;;;;5.00;2.65;;;;;;;;;;5026200;28;20208;-69
2023/07/20 07:19:56;;;;;;;3.88;2.50;;;;;;;;;;5021807;28;20200;-69
2023/07/20 07:22:23;;;;;;;2.72;2.53;;;;;;;;;;5024859;28;20215;-69
2023/07/20 07:24:50;;;;;;;3.03;2.58;;;;;;;;;;5026665;28;20203;-69
2023/07/20 07:27:17;;;;;;;4.28;2.88;;;;;;;;;;5020375;28;20200;-67
2023/07/20 07:29:45;;;;;;;3.25;2.17;;;;;;;;;;5021201;28;20291;-69
2023/07/20 07:32:12;;;;;;;5.82;2.70;;;;;;;;;;5021712;28;20212;-69
2023/07/20 07:34:41;;;;;;;3.03;2.20;;;;;;;;;;5023042;28;20211;-69
2023/07/20 07:37:08;;;;;;;6.13;2.97;;;;;;;;;;5023529;28;20218;-68
2023/07/20 07:39:35;;;;;;;4.60;3.17;;;;;;;;;;5018469;28;20205;-69
2023/07/20 07:42:02;;;;;;;4.50;3.10;;;;;;;;;;5023520;28;20202;-67
2023/07/20 07:44:30;;;;;;;2.92;2.67;;;;;;;;;;5021057;28;20214;-68
2023/07/20 07:46:57;;;;;;;2.92;2.30;;;;;;;;;;5018468;28;20259;-68
2023/07/20 07:49:25;;;;;;;3.88;2.42;;;;;;;;;;5019115;28;20228;-69
2023/07/20 07:51:53;;;;;;;4.72;2.80;;;;;;;;;;5021093;28;20226;-68
2023/07/20 07:54:20;;;;;;;3.20;2.90;;;;;;;;;;5020689;28;20212;-68
2023/07/20 07:56:47;;;;;;;3.35;2.70;;;;;;;;;;5021938;28;20217;-68
2023/07/20 07:59:15;;;;;;;3.83;3.08;;;;;;;;;;5018589;28;20200;-68
2023/07/20 08:01:42;;;;;;;4.43;2.80;;;;;;;;;;5012607;28;20299;-68
2023/07/20 08:04:09;;;;;;;3.53;2.90;;;;;;;;;;5024001;28;20204;-68
2023/07/20 08:06:36;;;;;;;3.92;2.75;;;;;;;;;;5016547;28;20211;-68
2023/07/20 08:09:05;;;;;;;4.00;2.30;;;;;;;;;;5022128;28;20240;-68
2023/07/20 08:11:33;;;;;;;3.30;2.60;;;;;;;;;;5028642;28;20212;-68
2023/07/20 08:14:00;;;;;;;3.47;2.95;;;;;;;;;;5026756;28;20200;-68
2023/07/20 08:16:28;;;;;;;4.07;2.38;;;;;;;;;;5024179;28;20240;-67
2023/07/20 08:18:55;;;;;;;4.65;3.08;;;;;;;;;;5033666;28;20196;-68
2023/07/20 08:21:22;;;;;;;3.00;2.42;;;;;;;;;;5020788;28;20203;-68
2023/07/20 08:23:49;;;;;;;3.42;2.92;;;;;;;;;;5024456;28;20214;-68
2023/07/20 08:26:18;;;;;;;3.40;2.95;;;;;;;;;;5020317;28;20205;-68
2023/07/20 08:28:48;;;;;;;2.80;2.60;;;;;;;;;;5021924;28;20282;-69
2023/07/20 08:31:15;;;;;;;3.88;2.58;;;;;;;;;;5019068;28;20197;-68
2023/07/20 08:33:42;;;;;;;3.97;2.38;;;;;;;;;;5020098;28;20205;-68
2023/07/20 08:36:09;;;;;;;2.95;2.15;;;;;;;;;;5022695;28;20213;-66
2023/07/20 08:38:36;;;;;;;5.80;2.65;;;;;;;;;;5024325;28;20271;-69
2023/07/20 08:41:04;;;;;;;3.67;2.17;;;;;;;;;;5025939;28;20208;-69
2023/07/20 08:43:33;;;;;;;5.20;2.45;;;;;;;;;;5027156;28;20208;-69
2023/07/20 08:46:00;;;;;;;3.22;2.25;;;;;;;;;;5024241;28;20208;-69
2023/07/20 08:48:28;;;;;;;5.20;2.35;;;;;;;;;;5021591;28;20248;-70
2023/07/20 08:50:57;;;;;;;3.85;2.50;;;;;;;;;;5026480;28;20208;-70
2023/07/20 08:53:24;;;;;;;3.78;2.53;;;;;;;;;;5026946;28;20197;-70
2023/07/20 08:55:52;;;;;;;2.75;2.33;;;;;;;;;;5030845;28;20204;-69
2023/07/20 08:58:19;;;;;;;3.00;2.10;;;;;;;;;;5024369;28;20311;-70
2023/07/20 09:00:52;;;;;;;3.65;2.30;;;;;;;;;;5020744;28;20294;-69
2023/07/20 09:03:19;;;;;;;2.20;2.10;;;;;;;;;;5026263;28;20208;-69
2023/07/20 09:05:46;;;;;;;4.50;2.30;;;;;;;;;;5021195;28;20250;-69
2023/07/20 09:08:14;;;;;;;3.15;2.30;;;;;;;;;;5031237;28;20220;-69
2023/07/20 09:10:41;;;;;;;4.13;2.05;;;;;;;;;;5022664;28;20232;-71
2023/07/20 09:13:08;;;;;;;2.40;1.98;;;;;;;;;;5032103;28;20208;-70
2023/07/20 09:15:35;;;;;;;4.50;2.13;;;;;;;;;;5022282;28;20238;-68
2023/07/20 09:18:04;;;;;;;2.92;2.10;;;;;;;;;;5028079;28;20204;-70
2023/07/20 09:20:33;;;;;;;6.82;2.10;;;;;;;;;;5022814;28;20212;-69
2023/07/20 09:23:00;;;;;;;2.65;2.05;;;;;;;;;;5025259;28;20201;-69
2023/07/20 09:25:29;;;;;;;3.15;1.83;;;;;;;;;;5021811;28;20208;-67
2023/07/20 09:27:56;;;;;;;3.65;1.70;;;;;;;;;;5026497;28;20258;-68
2023/07/20 09:30:26;;;;;;;1.73;1.55;;;;;;;;;;5024684;28;20215;-69
2023/07/20 09:32:54;;;;;;;3.20;1.95;;;;;;;;;;5020990;28;20211;-68
2023/07/20 09:35:23;;;;;;;3.00;1.90;;;;;;;;;;5022328;28;20299;-69
2023/07/20 09:37:53;;;;;;;2.25;1.85;;;;;;;;;;5026757;28;20204;-69
2023/07/20 09:40:20;;;;;;;3.85;1.85;;;;;;;;;;5021813;28;20228;-69
2023/07/20 09:42:48;;;;;;;4.13;2.42;;;;;;;;;;5022571;28;20200;-69
2023/07/20 09:45:16;;;;;;;2.80;2.05;;;;;;;;;;5024834;28;20318;-68
2023/07/20 09:47:43;;;;;;;3.38;2.10;;;;;;;;;;5019132;28;20213;-69
2023/07/20 09:50:11;;;;;;;4.05;2.13;;;;;;;;;;5025212;28;20235;-69
2023/07/20 09:52:44;;;;;;;5.10;2.30;;;;;;;;;;5023039;28;20265;-69
2023/07/20 09:55:12;;;;;;;2.88;1.63;;;;;;;;;;5026084;28;20206;-70
2023/07/20 09:57:39;;;;;;;2.40;1.80;;;;;;;;;;5020704;28;20211;-68
2023/07/20 10:00:13;;;;;;;4.40;2.03;;;;;;;;;;5018005;28;20239;-69
2023/07/20 10:02:44;;;;;;;4.57;1.80;;;;;;;;;;5022366;28;20209;-69
2023/07/20 10:05:13;;;;;;;5.53;2.00;;;;;;;;;;5024669;28;20246;-67
2023/07/20 10:07:46;;;;;;;1.75;1.63;;;;;;;;;;5025498;28;20204;-69
2023/07/20 10:10:15;;;;;;;2.88;1.70;;;;;;;;;;5019081;28;20278;-69
2023/07/20 10:12:42;;;;;;;3.95;1.77;;;;;;;;;;5022329;28;20219;-70
2023/07/20 10:15:12;;;;;;;3.13;1.75;;;;;;;;;;5025095;28;20215;-68
2023/07/20 10:17:49;;;;;;;2.25;1.40;;;;;;;;;;5022700;28;20216;-71
2023/07/20 10:20:18;;;;;;;1.70;1.60;;;;;;;;;;5026318;28;20300;-69
2023/07/20 10:22:47;;;;;;;1.60;1.50;;;;;;;;;;5021230;28;20205;-68
2023/07/20 10:25:14;;;;;;;2.78;1.50;;;;;;;;;;5017983;28;20214;-70
2023/07/20 10:27:42;;;;;;;3.75;1.85;;;;;;;;;;5021544;28;20270;-71
2023/07/20 10:30:09;;;;;;;3.50;1.73;;;;;;;;;;5019173;28;20235;-69
2023/07/20 10:32:37;;;;;;;4.13;1.63;;;;;;;;;;5014936;28;20216;-70
2023/07/20 10:35:13;;;;;;;1.75;1.38;;;;;;;;;;5020346;28;20220;-68
2023/07/20 10:37:55;;;;;;;1.98;1.70;;;;;;;;;;5024398;28;20207;-70
2023/07/20 10:40:26;;;;;;;3.75;1.50;;;;;;;;;;5019685;28;20205;-71
2023/07/20 10:42:57;;;;;;;2.47;1.40;;;;;;;;;;5025069;28;20201;-69
2023/07/20 10:45:34;;;;;;;3.58;1.70;;;;;;;;;;5027901;28;20211;-70
2023/07/20 10:48:04;;;;;;;1.88;1.58;;;;;;;;;;5023318;28;20208;-69
2023/07/20 10:50:31;;;;;;;3.03;1.70;;;;;;;;;;5020290;28;20223;-69
2023/07/20 10:53:13;;;;;;;3.17;1.50;;;;;;;;;;5017830;28;20215;-69
2023/07/20 10:55:40;;;;;;;2.03;1.50;;;;;;;;;;5021936;28;20208;-71
2023/07/20 10:58:09;;;;;;;2.38;1.50;;;;;;;;;;5019856;28;20204;-69
2023/07/20 11:00:36;;;;;;;2.50;1.27;;;;;;;;;;5021260;28;20195;-70
2023/07/20 11:03:03;;;;;;;3.72;1.15;;;;;;;;;;5024914;28;20218;-69
2023/07/20 11:05:34;;;;;;;2.67;1.10;;;;;;;;;;5015380;28;20203;-71
2023/07/20 11:08:02;;;;;;;1.67;1.27;;;;;;;;;;5022341;28;20201;-71
2023/07/20 11:10:30;;;;;;;2.03;1.60;;;;;;;;;;5018348;28;20225;-69
2023/07/20 11:13:16;;;;;;;1.80;1.60;;;;;;;;;;5022816;28;20205;-71
2023/07/20 11:15:47;;;;;;;3.65;1.38;;;;;;;;;;5018376;28;20278;-71
2023/07/20 11:18:14;;;;;;;2.47;1.40;;;;;;;;;;5018596;28;20223;-69
2023/07/20 11:20:42;;;;;;;3.22;1.60;;;;;;;;;;5017298;28;20207;-70
2023/07/20 11:23:10;;;;;;;1.40;0.98;;;;;;;;;;5018816;28;20204;-68
2023/07/20 11:25:40;;;;;;;1.27;1.10;;;;;;;;;;5026148;28;20212;-70
2023/07/20 11:28:11;;;;;;;1.10;1.10;;;;;;;;;;5011338;28;20205;-71
2023/07/20 11:30:38;;;;;;;1.30;1.20;;;;;;;;;;5019579;28;20266;-71
2023/07/20 11:33:06;;;;;;;1.15;1.02;;;;;;;;;;5018070;28;20212;-69
2023/07/20 11:35:37;;;;;;;1.92;1.10;;;;;;;;;;5012207;28;20213;-70
2023/07/20 11:38:04;;;;;;;1.48;1.00;;;;;;;;;;5024540;28;20242;-71
2023/07/20 11:40:31;;;;;;;1.80;1.20;;;;;;;;;;5012900;28;20219;-70
2023/07/20 11:43:00;;;;;;;1.20;1.10;;;;;;;;;;5026622;28;20199;-70
2023/07/20 11:45:32;;;;;;;3.05;1.15;;;;;;;;;;5015924;28;20215;-71
2023/07/20 11:48:00;;;;;;;1.48;1.10;;;;;;;;;;5018747;28;20201;-69
2023/07/20 11:50:28;;;;;;;2.63;1.20;;;;;;;;;;5014124;28;20314;-69
2023/07/20 11:52:56;;;;;;;3.60;1.27;;;;;;;;;;5013001;28;20324;-71
2023/07/20 11:55:23;;;;;;;2.47;1.38;;;;;;;;;;5017750;28;20205;-70
2023/07/20 11:58:04;;;;;;;3.60;1.30;;;;;;;;;;5019995;28;20212;-71
2023/07/20 12:00:32;;;;;;;2.28;1.30;;;;;;;;;;5023576;28;20282;-72
2023/07/20 12:02:59;;;;;;;1.20;1.02;;;;;;;;;;5018935;28;20212;-69
2023/07/20 12:05:27;;;;;;;1.35;1.25;;;;;;;;;;5021041;28;20212;-71
2023/07/20 12:07:54;;;;;;;2.00;1.00;;;;;;;;;;5020002;28;20263;-69
2023/07/20 12:10:26;;;;;;;1.98;1.20;;;;;;;;;;5022385;28;20269;-69
2023/07/20 12:12:53;;;;;;;1.08;1.00;;;;;;;;;;5021536;28;20207;-71
2023/07/20 12:15:23;;;;;;;2.25;1.05;;;;;;;;;;5024205;28;20245;-71
2023/07/20 12:17:51;;;;;;;2.53;1.20;;;;;;;;;;5016896;28;20302;-71
2023/07/20 12:20:27;;;;;;;1.30;1.20;;;;;;;;;;5022334;28;20226;-70
2023/07/20 12:22:54;;;;;;;1.48;1.02;;;;;;;;;;5016154;28;20204;-69
2023/07/20 12:25:21;;;;;;;3.92;1.30;;;;;;;;;;5024897;28;20231;-72
2023/07/20 12:27:49;;;;;;;2.95;1.17;;;;;;;;;;5026434;28;20201;-70
2023/07/20 12:30:16;;;;;;;1.27;1.10;;;;;;;;;;5024675;28;20224;-70
2023/07/20 12:32:45;;;;;;;1.38;1.10;;;;;;;;;;5025938;28;20208;-70
2023/07/20 12:35:14;;;;;;;1.58;1.10;;;;;;;;;;5021860;28;20215;-71
2023/07/20 12:37:41;;;;;;;1.33;1.23;;;;;;;;;;5020970;28;20197;-71
2023/07/20 12:40:10;;;;;;;2.45;1.20;;;;;;;;;;5026566;28;20207;-72
2023/07/20 12:42:38;;;;;;;2.03;1.40;;;;;;;;;;5028307;28;20205;-71
2023/07/20 12:45:06;;;;;;;1.13;1.02;;;;;;;;;;5022293;28;20215;-72
2023/07/20 12:47:33;;;;;;;1.20;1.10;;;;;;;;;;5028006;28;20208;-72
2023/07/20 12:50:04;;;;;;;2.15;1.25;;;;;;;;;;5027911;28;20232;-71
2023/07/20 12:52:31;;;;;;;1.35;1.23;;;;;;;;;;5026076;28;20216;-70
2023/07/20 12:55:01;;;;;;;1.30;1.20;;;;;;;;;;5023329;28;20213;-71
2023/07/20 12:57:28;;;;;;;1.73;1.27;;;;;;;;;;5030829;28;20204;-71
2023/07/20 12:59:55;;;;;;;1.88;1.10;;;;;;;;;;5021899;28;20200;-71
2023/07/20 13:02:22;;;;;;;1.55;1.08;;;;;;;;;;5023228;28;20209;-72
2023/07/20 13:04:49;;;;;;;2.33;1.27;;;;;;;;;;5024694;28;20197;-64
2023/07/20 13:07:18;;;;;;;2.78;1.40;;;;;;;;;;5025689;28;20205;-64
2023/07/20 13:09:45;;;;;;;1.95;1.30;;;;;;;;;;5028945;28;20220;-64
2023/07/20 13:12:12;;;;;;;2.97;1.10;;;;;;;;;;5026121;28;20208;-64
2023/07/20 13:14:39;;;;;;;1.75;1.30;;;;;;;;;;5025510;28;20211;-64
2023/07/20 13:17:08;;;;;;;1.77;0.95;;;;;;;;;;5024215;28;20236;-64
2023/07/20 13:19:35;;;;;;;7.47;1.35;;;;;;;;;;5026478;28;20207;-65
2023/07/20 13:22:03;;;;;;;1.30;1.20;;;;;;;;;;5025826;28;20205;-64
2023/07/20 13:24:31;;;;;;;2.30;1.05;;;;;;;;;;5014028;28;20215;-64
2023/07/20 13:26:58;;;;;;;2.15;1.05;;;;;;;;;;5023450;28;20200;-64
2023/07/20 13:29:26;;;;;;;3.67;1.10;;;;;;;;;;5024718;28;20250;-65
2023/07/20 13:31:53;;;;;;;2.50;1.52;;;;;;;;;;5023404;28;20208;-65
2023/07/20 13:34:20;;;;;;;2.85;1.38;;;;;;;;;;5025962;28;20257;-65
2023/07/20 13:36:48;;;;;;;3.22;1.20;;;;;;;;;;5012912;28;20216;-64
2023/07/20 13:39:15;;;;;;;1.58;1.20;;;;;;;;;;5015269;28;20209;-65
2023/07/20 13:41:43;;;;;;;1.23;1.15;;;;;;;;;;5018896;28;20227;-65
2023/07/20 13:44:11;;;;;;;1.40;1.30;;;;;;;;;;5018820;28;20208;-65
2023/07/20 13:46:39;;;;;;;2.83;1.30;;;;;;;;;;5021998;28;20200;-65
2023/07/20 13:49:06;;;;;;;1.67;1.15;;;;;;;;;;5031400;28;20278;-65
2023/07/20 13:51:33;;;;;;;2.03;1.20;;;;;;;;;;5025043;28;20211;-65
2023/07/20 13:54:00;;;;;;;1.30;1.20;;;;;;;;;;5029285;28;20211;-65
2023/07/20 13:56:28;;;;;;;2.88;1.58;;;;;;;;;;5023215;28;20214;-65
2023/07/20 13:58:57;;;;;;;1.52;1.10;;;;;;;;;;5023198;28;20207;-65
2023/07/20 14:01:24;;;;;;;1.98;1.10;;;;;;;;;;5025276;28;20197;-65
2023/07/20 14:03:51;;;;;;;1.92;1.40;;;;;;;;;;5025427;28;20247;-65
2023/07/20 14:06:19;;;;;;;2.08;1.20;;;;;;;;;;5022679;28;20212;-65
2023/07/20 14:08:46;;;;;;;1.05;1.05;;;;;;;;;;5020348;28;20203;-65
2023/07/20 14:11:13;;;;;;;1.25;1.15;;;;;;;;;;5014891;28;20318;-65
2023/07/20 14:13:41;;;;;;;1.20;1.10;;;;;;;;;;5023535;28;20204;-66
2023/07/20 14:16:09;;;;;;;1.88;1.20;;;;;;;;;;5018062;28;20236;-66
2023/07/20 14:18:36;;;;;;;1.20;1.20;;;;;;;;;;5020269;28;20548;-65
2023/07/20 14:21:04;;;;;;;1.27;1.17;;;;;;;;;;5020536;28;20207;-65
2023/07/20 14:23:32;;;;;;;1.30;1.20;;;;;;;;;;5017438;28;20213;-65
2023/07/20 14:25:59;;;;;;;1.23;1.13;;;;;;;;;;5022565;28;20204;-65
2023/07/20 14:28:26;;;;;;;1.77;1.08;;;;;;;;;;5020104;28;20217;-66
2023/07/20 14:30:53;;;;;;;1.95;1.27;;;;;;;;;;5018966;28;20228;-65
2023/07/20 14:33:22;;;;;;;2.97;1.10;;;;;;;;;;5018472;28;20208;-65
2023/07/20 14:35:49;;;;;;;1.38;1.27;;;;;;;;;;5015534;28;20200;-66
2023/07/20 14:38:16;;;;;;;3.08;1.27;;;;;;;;;;5020308;28;20207;-66
2023/07/20 14:40:44;;;;;;;2.30;1.25;;;;;;;;;;5020642;28;20203;-65
2023/07/20 14:43:13;;;;;;;1.35;1.20;;;;;;;;;;5020727;28;20394;-65
2023/07/20 14:45:41;;;;;;;1.00;1.00;;;;;;;;;;5018253;28;20228;-65
2023/07/20 14:48:08;;;;;;;3.28;1.40;;;;;;;;;;5020461;28;20205;-66